Time;durP1;ratioP1;P1;durP2;ratioP2;P2;SDS_P1;SDS_P2;PMS_P1;PMS_P2;Temp;Humidity;BMP_temperature;BMP_pressure;BME280_temperature;BME280_humidity;BME280_pressure;Samples;Min_cycle;Max_cycle;Signal;HPM_P1;HPM_P2
2022/03/31 00:02:12;;;;;;;34.67;16.52;;;;;;;6.72;100.00;93702.91;5098377;28;20039;-79
2022/03/31 00:04:38;;;;;;;37.58;17.85;;;;;;;6.66;100.00;93704.06;5079331;28;20111;-77
2022/03/31 00:07:06;;;;;;;31.13;16.95;;;;;;;6.63;100.00;93704.63;5089547;28;20044;-77
2022/03/31 00:09:32;;;;;;;37.55;18.13;;;;;;;6.65;100.00;93697.28;5089384;28;20048;-76
2022/03/31 00:11:59;;;;;;;32.60;17.45;;;;;;;6.68;100.00;93696.72;5091753;28;20104;-77
2022/03/31 00:14:27;;;;;;;34.15;17.58;;;;;;;6.73;100.00;93696.59;5081605;28;20044;-76
2022/03/31 00:16:53;;;;;;;39.30;19.02;;;;;;;6.81;100.00;93694.38;5083896;28;20036;-76
2022/03/31 00:19:19;;;;;;;35.17;18.55;;;;;;;6.72;100.00;93702.91;5079329;28;20093;-77
2022/03/31 00:32:31;;;;;;;43.40;19.98;;;;;;;6.83;100.00;93687.03;5103609;28;20048;-77
2022/03/31 00:34:57;;;;;;;41.35;19.50;;;;;;;6.86;100.00;93670.78;5094688;28;20035;-76
2022/03/31 00:37:38;;;;;;;39.65;20.33;;;;;;;6.82;100.00;93675.03;5106174;28;20051;-77
2022/03/31 00:40:04;;;;;;;42.08;20.38;;;;;;;7.03;100.00;93681.41;5080277;28;20036;-76
2022/03/31 00:42:30;;;;;;;44.97;21.00;;;;;;;7.02;100.00;93679.09;5083667;28;20051;-76
2022/03/31 00:44:57;;;;;;;39.90;20.30;;;;;;;6.93;100.00;93671.16;5090262;28;20143;-76
2022/03/31 00:47:23;;;;;;;38.15;19.63;;;;;;;6.82;100.00;93667.19;5106365;28;20051;-76
2022/03/31 00:49:49;;;;;;;43.28;20.13;;;;;;;6.66;100.00;93672.69;5091785;28;20577;-76
2022/03/31 00:52:14;;;;;;;43.08;18.98;;;;;;;6.67;100.00;93669.00;5092457;28;20055;-76
2022/03/31 00:54:41;;;;;;;37.38;18.90;;;;;;;6.78;100.00;93663.59;5092698;28;20489;-77
2022/03/31 00:57:12;;;;;;;40.78;20.48;;;;;;;6.66;100.00;93664.09;5093119;28;20041;-76
2022/03/31 00:59:38;;;;;;;35.53;17.73;;;;;;;6.61;100.00;93664.94;5093155;28;20515;-76
2022/03/31 01:02:04;;;;;;;39.30;17.60;;;;;;;6.51;100.00;93665.13;5110032;28;20088;-76
2022/03/31 01:04:30;;;;;;;36.50;17.30;;;;;;;6.44;100.00;93659.50;5108221;28;20044;-77
2022/03/31 01:06:56;;;;;;;43.15;18.65;;;;;;;6.47;100.00;93649.25;5097527;28;20044;-76
2022/03/31 01:09:22;;;;;;;35.35;18.10;;;;;;;6.49;100.00;93647.09;5106012;28;20500;-76
2022/03/31 01:11:48;;;;;;;41.65;17.35;;;;;;;6.46;100.00;93641.69;5102451;28;20051;-77
2022/03/31 01:14:15;;;;;;;40.00;19.48;;;;;;;6.45;100.00;93645.38;5093684;28;20051;-76
2022/03/31 01:16:41;;;;;;;45.03;20.27;;;;;;;6.43;100.00;93632.59;5106193;28;20040;-76
2022/03/31 01:19:09;;;;;;;42.97;19.70;;;;;;;6.44;100.00;93628.94;5094157;28;20044;-76
2022/03/31 01:21:43;;;;;;;39.22;19.20;;;;;;;6.47;100.00;93632.81;5106045;28;20048;-76
2022/03/31 01:24:13;;;;;;;39.95;19.23;;;;;;;6.47;100.00;93623.13;5109490;28;20040;-76
2022/03/31 01:26:40;;;;;;;43.35;19.85;;;;;;;6.47;100.00;93627.56;5085420;28;20044;-77
2022/03/31 01:29:08;;;;;;;45.47;20.35;;;;;;;6.54;100.00;93622.75;5093920;28;20036;-76
2022/03/31 01:31:35;;;;;;;43.35;20.92;;;;;;;6.61;100.00;93625.75;5086527;28;20099;-76
2022/03/31 01:34:01;;;;;;;46.25;20.55;;;;;;;6.69;100.00;93619.81;5099043;28;20089;-77
2022/03/31 01:36:27;;;;;;;43.08;19.98;;;;;;;6.75;100.00;93623.91;5102932;28;20095;-76
2022/03/31 01:38:55;;;;;;;39.40;19.70;;;;;;;6.76;100.00;93619.44;5095121;28;20047;-77
2022/03/31 01:41:24;;;;;;;45.47;20.55;;;;;;;6.70;100.00;93616.16;5084081;28;20031;-77
2022/03/31 01:43:50;;;;;;;44.33;20.48;;;;;;;6.73;100.00;93607.72;5095832;28;20044;-76
2022/03/31 01:46:16;;;;;;;51.17;23.45;;;;;;;6.67;100.00;93611.50;5104707;28;20096;-77
2022/03/31 01:48:42;;;;;;;55.55;24.33;;;;;;;6.64;100.00;93601.63;5109125;28;20489;-76
2022/03/31 01:51:08;;;;;;;55.58;25.70;;;;;;;6.58;100.00;93602.81;5082395;28;20033;-76
2022/03/31 01:53:36;;;;;;;57.05;26.02;;;;;;;6.58;100.00;93597.59;5098815;28;20040;-77
2022/03/31 01:56:02;;;;;;;52.88;23.88;;;;;;;6.61;100.00;93602.22;5095101;28;20047;-77
2022/03/31 01:58:28;;;;;;;58.22;24.50;;;;;;;6.61;100.00;93597.00;5105514;28;20123;-76
2022/03/31 02:00:54;;;;;;;62.33;26.83;;;;;;;6.66;100.00;93598.72;5091790;28;20051;-75
2022/03/31 02:03:20;;;;;;;59.88;25.98;;;;;;;6.63;100.00;93589.63;5102674;28;20040;-76
2022/03/31 02:05:46;;;;;;;64.82;25.63;;;;;;;6.55;100.00;93592.91;5092079;28;20087;-76
2022/03/31 02:08:12;;;;;;;60.25;26.45;;;;;;;6.56;100.00;93584.00;5103315;28;20059;-77
2022/03/31 02:10:37;;;;;;;72.10;27.60;;;;;;;6.66;100.00;93581.19;5092279;28;20436;-76
2022/03/31 02:13:05;;;;;;;55.28;25.67;;;;;;;6.80;100.00;93583.06;5097541;28;20433;-76
2022/03/31 02:15:30;;;;;;;62.88;27.30;;;;;;;6.66;100.00;93578.59;5093929;28;20044;-77
2022/03/31 02:17:56;;;;;;;61.33;25.98;;;;;;;6.58;100.00;93581.91;5081456;28;20146;-76
2022/03/31 02:20:26;;;;;;;60.85;26.63;;;;;;;6.59;100.00;93572.97;5092536;28;20048;-76
2022/03/31 02:22:52;;;;;;;59.08;25.75;;;;;;;6.45;100.00;93561.75;5097327;28;20105;-76
2022/03/31 02:25:18;;;;;;;61.08;27.25;;;;;;;6.38;100.00;93564.78;5098149;28;20040;-76
2022/03/31 02:27:43;;;;;;;63.08;26.65;;;;;;;6.38;100.00;93555.09;5081920;28;20107;-76
2022/03/31 02:30:10;;;;;;;58.03;25.50;;;;;;;6.49;100.00;93547.03;5096474;28;20044;-76
2022/03/31 02:32:37;;;;;;;59.13;26.05;;;;;;;6.40;100.00;93549.56;5102778;28;20044;-76
2022/03/31 02:35:05;;;;;;;59.55;25.63;;;;;;;6.17;100.00;93546.06;5101897;28;20047;-76
2022/03/31 02:37:31;;;;;;;62.95;26.50;;;;;;;5.94;100.00;93543.31;5091513;28;20493;-76
2022/03/31 02:39:57;;;;;;;57.80;26.42;;;;;;;6.07;100.00;93547.78;5095355;28;20714;-76
2022/03/31 02:42:22;;;;;;;61.78;25.52;;;;;;;6.06;100.00;93551.50;5096565;27;20041;-76
2022/03/31 02:44:48;;;;;;;62.78;26.80;;;;;;;5.96;100.00;93535.97;5110994;28;20043;-76
2022/03/31 02:47:14;;;;;;;64.60;27.70;;;;;;;5.72;100.00;93534.28;5108830;28;20093;-75
2022/03/31 02:49:40;;;;;;;65.80;27.85;;;;;;;5.79;100.00;93535.72;5099506;28;20123;-75
2022/03/31 02:52:07;;;;;;;70.07;27.73;;;;;;;5.92;100.00;93535.00;5106849;28;20047;-75
2022/03/31 02:57:18;;;;;;;58.70;25.35;;;;;;;6.02;100.00;93537.47;5090523;28;20051;-76
2022/03/31 02:59:44;;;;;;;66.25;27.42;;;;;;;6.08;100.00;93538.16;5072839;28;20048;-76
2022/03/31 03:02:10;;;;;;;63.10;26.88;;;;;;;6.11;100.00;93526.34;5098874;28;20067;-77
2022/03/31 03:04:36;;;;;;;60.78;26.30;;;;;;;6.14;100.00;93520.53;5091360;28;20101;-76
2022/03/31 03:07:01;;;;;;;62.60;26.73;;;;;;;6.17;100.00;93519.97;5096046;28;22226;-77
2022/03/31 03:09:27;;;;;;;63.13;26.42;;;;;;;6.17;100.00;93509.50;5079232;28;20071;-76
2022/03/31 03:11:52;;;;;;;63.28;27.58;;;;;;;6.13;100.00;93503.31;5107891;28;20126;-76
2022/03/31 03:14:18;;;;;;;54.72;25.10;;;;;;;6.21;100.00;93505.25;5084862;28;20714;-76
2022/03/31 03:16:43;;;;;;;59.28;25.77;;;;;;;6.24;100.00;93509.91;5107140;28;20044;-76
2022/03/31 03:19:09;;;;;;;58.55;25.85;;;;;;;6.24;100.00;93510.66;5074406;28;20390;-76
2022/03/31 03:21:34;;;;;;;54.55;25.83;;;;;;;6.18;100.00;93516.28;5103146;28;20527;-76
2022/03/31 03:24:04;;;;;;;57.30;24.77;;;;;;;6.14;100.00;93517.94;5094430;28;20040;-77
2022/03/31 03:26:30;;;;;;;60.13;26.80;;;;;;;6.18;100.00;93516.28;5105029;28;20043;-77
2022/03/31 03:28:56;;;;;;;59.35;26.70;;;;;;;6.22;100.00;93518.03;5101764;28;20455;-77
2022/03/31 03:31:21;;;;;;;58.05;26.38;;;;;;;6.20;100.00;93508.94;5098920;28;20035;-76
2022/03/31 03:33:47;;;;;;;58.85;25.85;;;;;;;6.29;100.00;93507.19;5105453;27;20072;-76
2022/03/31 03:36:19;;;;;;;61.55;26.73;;;;;;;6.23;100.00;93513.56;5105463;27;20043;-77
2022/03/31 03:38:45;;;;;;;61.75;25.38;;;;;;;6.31;100.00;93515.50;5098862;28;20063;-77
2022/03/31 03:41:12;;;;;;;65.63;27.33;;;;;;;6.26;100.00;93512.97;5090444;28;20039;-76
2022/03/31 03:43:42;;;;;;;60.58;26.20;;;;;;;6.19;100.00;93502.94;5079786;28;20054;-76
2022/03/31 03:46:08;;;;;;;68.13;27.02;;;;;;;6.25;100.00;93506.22;5091282;28;20050;-76
2022/03/31 03:48:34;;;;;;;62.50;28.40;;;;;;;6.14;100.00;93510.09;5098177;28;20044;-76
2022/03/31 03:51:00;;;;;;;68.88;28.05;;;;;;;6.14;100.00;93510.09;5074311;28;20036;-77
2022/03/31 03:53:25;;;;;;;66.35;27.92;;;;;;;6.05;100.00;93508.16;5102067;28;20063;-76
2022/03/31 03:55:51;;;;;;;75.00;29.35;;;;;;;6.09;100.00;93497.13;5077344;28;20036;-76
2022/03/31 03:58:18;;;;;;;77.47;30.27;;;;;;;6.09;100.00;93503.09;5081673;28;20114;-77
2022/03/31 04:00:43;;;;;;;70.65;28.92;;;;;;;6.12;100.00;93499.16;5089986;28;20044;-76
2022/03/31 04:03:09;;;;;;;65.95;27.92;;;;;;;6.17;100.00;93501.69;5090512;28;20052;-76
2022/03/31 04:05:35;;;;;;;70.05;29.05;;;;;;;6.19;100.00;93502.16;5072343;28;20044;-76
2022/03/31 04:08:00;;;;;;;64.90;29.05;;;;;;;5.92;100.00;93503.69;5089149;28;20119;-76
2022/03/31 04:10:26;;;;;;;65.57;27.77;;;;;;;6.10;100.00;93503.91;5089310;28;20040;-76
2022/03/31 04:12:51;;;;;;;72.95;29.85;;;;;;;6.21;100.00;93494.81;5089371;28;20054;-76
2022/03/31 04:15:17;;;;;;;68.10;26.75;;;;;;;6.24;100.00;93502.06;5092338;28;20095;-76
2022/03/31 04:17:43;;;;;;;74.32;29.80;;;;;;;6.26;100.00;93492.09;5093381;28;20050;-76
2022/03/31 04:20:13;;;;;;;63.28;27.33;;;;;;;6.20;100.00;93493.25;5081607;28;20046;-76
2022/03/31 04:22:40;;;;;;;63.33;27.95;;;;;;;6.23;100.00;93487.44;5098175;28;20032;-76
2022/03/31 04:25:07;;;;;;;64.80;27.80;;;;;;;6.19;100.00;93486.47;5103338;28;20039;-76
2022/03/31 04:27:36;;;;;;;79.05;30.02;;;;;;;6.04;100.00;93490.94;5085583;28;20104;-75
2022/03/31 04:30:04;;;;;;;98.00;30.40;;;;;;;5.98;100.00;93492.09;5078082;28;20497;-75
2022/03/31 04:32:30;;;;;;;80.40;29.48;;;;;;;6.06;100.00;93499.25;5092651;28;20065;-75
2022/03/31 04:34:56;;;;;;;71.60;29.15;;;;;;;6.01;100.00;93498.59;5102541;28;20035;-75
2022/03/31 04:37:21;;;;;;;77.28;29.88;;;;;;;5.77;100.00;93490.88;5093782;28;20039;-75
2022/03/31 04:39:47;;;;;;;87.03;31.75;;;;;;;5.72;100.00;93495.13;5103200;28;20047;-75
2022/03/31 04:42:12;;;;;;;72.10;28.48;;;;;;;5.93;100.00;93499.97;5105223;28;20051;-75
2022/03/31 04:44:38;;;;;;;71.63;28.30;;;;;;;5.98;100.00;93497.31;5082493;28;20032;-75
2022/03/31 04:47:07;;;;;;;72.75;29.92;;;;;;;5.77;100.00;93490.88;5078708;28;20043;-74
2022/03/31 04:49:33;;;;;;;70.93;29.40;;;;;;;5.75;100.00;93495.59;5089120;28;20071;-75
2022/03/31 04:51:59;;;;;;;65.88;28.40;;;;;;;5.87;100.00;93493.31;5089275;28;20075;-76
2022/03/31 04:54:25;;;;;;;72.32;29.42;;;;;;;5.97;100.00;93490.53;5100697;28;20047;-76
2022/03/31 04:56:51;;;;;;;71.07;28.95;;;;;;;6.05;100.00;93487.25;5094236;28;20040;-76
2022/03/31 04:59:16;;;;;;;69.03;28.42;;;;;;;6.08;100.00;93496.34;5093405;28;20048;-76
2022/03/31 05:01:42;;;;;;;68.03;27.50;;;;;;;6.04;100.00;93490.16;5086513;28;20071;-76
2022/03/31 05:04:09;;;;;;;66.90;28.40;;;;;;;5.98;100.00;93496.56;5090079;28;20051;-76
2022/03/31 05:06:35;;;;;;;73.40;28.25;;;;;;;5.94;100.00;93491.09;5093192;28;20044;-76
2022/03/31 05:09:02;;;;;;;69.32;26.60;;;;;;;5.99;100.00;93493.66;5096816;28;20048;-77
2022/03/31 05:11:27;;;;;;;66.78;28.02;;;;;;;6.01;100.00;93496.72;5097726;28;20538;-77
2022/03/31 05:13:53;;;;;;;67.65;27.95;;;;;;;6.04;100.00;93490.16;5096925;28;20032;-77
2022/03/31 05:16:19;;;;;;;66.93;28.83;;;;;;;6.16;100.00;93487.84;5090298;28;20155;-77
2022/03/31 05:18:45;;;;;;;69.65;27.98;;;;;;;6.14;100.00;93483.97;5071743;28;20109;-76
2022/03/31 05:21:11;;;;;;;78.00;28.25;;;;;;;6.11;100.00;93484.56;5098889;28;20040;-76
2022/03/31 05:23:36;;;;;;;58.92;26.30;;;;;;;6.16;100.00;93487.06;5097579;28;20400;-77
2022/03/31 05:26:02;;;;;;;70.65;27.67;;;;;;;6.11;100.00;93495.00;5072357;28;20044;-77
2022/03/31 05:28:28;;;;;;;68.75;28.30;;;;;;;6.11;100.00;93480.09;5105415;28;20111;-77
2022/03/31 05:30:53;;;;;;;64.57;26.80;;;;;;;6.09;100.00;93486.69;5082484;28;20032;-77
2022/03/31 05:33:19;;;;;;;62.38;26.75;;;;;;;6.07;100.00;93479.13;5076283;28;20039;-77
2022/03/31 05:35:45;;;;;;;66.75;26.23;;;;;;;6.09;100.00;93476.22;5078849;28;20489;-77
2022/03/31 05:38:10;;;;;;;65.00;26.27;;;;;;;6.05;100.00;93476.81;5105054;28;20111;-77
2022/03/31 05:40:36;;;;;;;67.43;26.05;;;;;;;5.97;100.00;93474.88;5089837;28;20166;-78
2022/03/31 05:43:02;;;;;;;74.20;29.00;;;;;;;5.95;100.00;93471.75;5088484;28;20047;-76
2022/03/31 05:45:27;;;;;;;68.47;28.33;;;;;;;5.97;100.00;93477.50;5073869;28;20040;-77
2022/03/31 05:47:54;;;;;;;71.18;29.13;;;;;;;6.08;100.00;93470.25;5092040;28;20048;-77
2022/03/31 05:50:20;;;;;;;79.55;30.23;;;;;;;6.09;100.00;93473.63;5092226;28;20040;-76
2022/03/31 05:52:46;;;;;;;90.65;33.28;;;;;;;6.06;100.00;93477.59;5089510;28;20051;-77
2022/03/31 05:55:14;;;;;;;75.90;31.63;;;;;;;6.07;100.00;93476.53;5110323;28;20044;-77
2022/03/31 05:57:40;;;;;;;74.00;29.67;;;;;;;6.03;100.00;93478.97;5106325;28;20040;-76
2022/03/31 06:00:08;;;;;;;80.78;31.20;;;;;;;6.04;100.00;93470.03;5086886;28;20036;-76
2022/03/31 06:02:34;;;;;;;76.40;30.67;;;;;;;6.04;100.00;93464.81;5105237;28;20052;-76
2022/03/31 06:04:59;;;;;;;82.15;31.88;;;;;;;6.14;100.00;93466.47;5086399;28;20040;-74
2022/03/31 06:07:25;;;;;;;79.63;31.15;;;;;;;6.15;100.00;93469.84;5084851;28;20039;-74
2022/03/31 06:09:50;;;;;;;76.93;30.45;;;;;;;6.05;100.00;93476.81;5089417;28;20048;-73
2022/03/31 06:12:16;;;;;;;92.20;30.98;;;;;;;6.07;100.00;93469.47;5105759;28;20038;-73
2022/03/31 06:14:42;;;;;;;83.03;31.38;;;;;;;6.11;100.00;93476.72;5086245;28;20085;-77
2022/03/31 06:17:08;;;;;;;75.90;29.60;;;;;;;6.13;100.00;93472.75;5081947;28;20044;-78
2022/03/31 06:19:34;;;;;;;73.50;29.45;;;;;;;6.15;100.00;93480.28;5101474;28;20036;-77
2022/03/31 06:21:59;;;;;;;74.50;29.70;;;;;;;6.20;100.00;93472.38;5109884;28;20040;-76
2022/03/31 06:24:25;;;;;;;75.47;27.90;;;;;;;6.15;100.00;93465.41;5107735;28;20051;-76
2022/03/31 06:26:51;;;;;;;76.07;29.63;;;;;;;6.13;100.00;93466.75;5098431;28;20066;-76
2022/03/31 06:29:16;;;;;;;72.50;29.65;;;;;;;6.18;100.00;93461.44;5102068;28;20127;-76
2022/03/31 06:31:42;;;;;;;76.22;30.30;;;;;;;6.11;100.00;93463.69;5075203;28;20485;-77
2022/03/31 06:34:08;;;;;;;78.28;30.30;;;;;;;6.06;100.00;93467.94;5111974;28;20489;-77
2022/03/31 06:36:34;;;;;;;84.95;31.00;;;;;;;6.17;100.00;93467.72;5102354;28;20040;-77
2022/03/31 06:38:59;;;;;;;82.05;31.25;;;;;;;6.17;100.00;93462.50;5098327;28;20467;-74
2022/03/31 06:41:25;;;;;;;82.88;31.45;;;;;;;6.25;100.00;93467.06;5105605;28;20040;-77
2022/03/31 06:43:51;;;;;;;82.30;32.25;;;;;;;6.27;100.00;93462.31;5103698;28;20044;-77
2022/03/31 06:46:17;;;;;;;76.30;31.15;;;;;;;6.13;100.00;93456.31;5081779;28;20066;-76
2022/03/31 06:48:48;;;;;;;80.47;31.25;;;;;;;6.18;100.00;93456.22;5086396;28;20047;-76
2022/03/31 06:51:15;;;;;;;78.90;31.45;;;;;;;6.22;100.00;93455.34;5081202;28;20693;-76
2022/03/31 06:53:41;;;;;;;96.03;34.30;;;;;;;6.10;100.00;93446.44;5091784;28;20040;-77
2022/03/31 06:56:08;;;;;;;90.47;32.25;;;;;;;6.21;100.00;93447.81;5092255;28;20031;-77
2022/03/31 06:58:34;;;;;;;93.50;34.30;;;;;;;6.29;100.00;93444.47;5105814;28;20681;-76
2022/03/31 07:01:00;;;;;;;80.60;31.77;;;;;;;6.43;100.00;93448.94;5088731;28;20048;-77
2022/03/31 07:03:27;;;;;;;88.38;34.50;;;;;;;6.29;100.00;93444.47;5106101;28;20040;-77
2022/03/31 07:05:53;;;;;;;85.57;31.02;;;;;;;6.61;100.00;93434.97;5082184;28;20040;-76
2022/03/31 07:08:19;;;;;;;85.38;32.47;;;;;;;6.49;100.00;93443.28;5099473;28;20455;-77
2022/03/31 07:10:45;;;;;;;84.82;32.65;;;;;;;6.50;100.00;93438.84;5087054;28;20451;-78
2022/03/31 07:13:11;;;;;;;86.20;32.78;;;;;;;6.61;100.00;93431.56;5106890;28;20166;-77
2022/03/31 07:15:37;;;;;;;88.20;32.80;;;;;;;6.97;100.00;93435.97;5091404;28;20047;-74
2022/03/31 07:18:04;;;;;;;87.22;32.78;;;;;;;6.68;100.00;93430.09;5097835;28;20059;-76
2022/03/31 07:20:34;;;;;;;81.80;32.13;;;;;;;6.89;100.00;93440.09;5099647;28;20043;-76
2022/03/31 07:23:00;;;;;;;87.47;33.90;;;;;;;6.66;100.00;93437.44;5084007;28;20566;-78
2022/03/31 07:25:27;;;;;;;83.90;33.20;;;;;;;6.68;100.00;93435.31;5101107;28;20036;-78
2022/03/31 07:27:53;;;;;;;89.78;33.58;;;;;;;6.73;100.00;93435.19;5093809;28;20044;-78
2022/03/31 07:30:20;;;;;;;76.78;31.55;;;;;;;6.59;100.00;93435.25;5103423;28;20516;-77
2022/03/31 07:33:03;;;;;;;84.13;33.17;;;;;;;6.82;100.00;93439.72;5108207;28;20089;-76
2022/03/31 07:35:30;;;;;;;73.50;29.80;;;;;;;6.99;100.00;93439.09;5099705;28;20421;-77
2022/03/31 07:37:57;;;;;;;79.55;31.13;;;;;;;7.07;100.00;93436.53;5107568;28;20047;-75
2022/03/31 07:40:25;;;;;;;77.93;31.38;;;;;;;6.83;100.00;93441.28;5084068;28;20044;-77
2022/03/31 07:42:51;;;;;;;84.68;31.98;;;;;;;6.59;100.00;93442.31;5080666;28;20031;-76
2022/03/31 07:45:19;;;;;;;86.93;32.08;;;;;;;6.82;100.00;93434.50;5089194;28;20040;-75
2022/03/31 07:47:45;;;;;;;80.68;32.35;;;;;;;6.94;100.00;93437.38;5100601;28;20493;-77
2022/03/31 07:50:13;;;;;;;74.32;29.35;;;;;;;7.23;100.00;93434.31;5075486;28;20029;-76
2022/03/31 07:52:40;;;;;;;70.22;28.67;;;;;;;7.39;98.77;93439.19;5100122;28;20040;-76
2022/03/31 07:55:07;;;;;;;74.75;27.25;;;;;;;7.40;98.96;93432.88;5107287;28;20043;-76
2022/03/31 07:57:33;;;;;;;78.43;31.17;;;;;;;7.35;100.00;93425.91;5085016;28;20393;-76
2022/03/31 08:00:00;;;;;;;71.72;29.08;;;;;;;7.52;99.94;93434.94;5098723;28;20047;-77
2022/03/31 08:02:26;;;;;;;77.40;31.00;;;;;;;7.54;99.00;93427.56;5101554;28;20094;-76
2022/03/31 08:04:52;;;;;;;69.13;29.42;;;;;;;7.90;95.73;93418.78;5085283;28;20460;-76
2022/03/31 08:07:18;;;;;;;77.30;30.30;;;;;;;7.92;98.33;93422.63;5099939;28;20382;-76
2022/03/31 08:09:44;;;;;;;68.65;28.60;;;;;;;7.65;97.52;93418.38;5098186;28;20040;-79
2022/03/31 08:12:10;;;;;;;71.03;28.90;;;;;;;7.82;97.91;93422.16;5089113;28;20106;-77
2022/03/31 08:14:36;;;;;;;66.20;28.77;;;;;;;7.76;98.25;93414.41;5107006;28;20035;-78
2022/03/31 08:17:02;;;;;;;66.10;27.08;;;;;;;8.13;96.46;93411.59;5109269;27;20039;-78
2022/03/31 08:19:30;;;;;;;67.05;26.92;;;;;;;8.33;94.56;93412.88;5089308;28;20039;-78
2022/03/31 08:21:56;;;;;;;64.32;26.42;;;;;;;8.40;94.92;93415.81;5099314;28;20469;-78
2022/03/31 08:24:23;;;;;;;73.82;30.15;;;;;;;7.97;95.54;93408.63;5085172;28;20044;-79
2022/03/31 08:26:50;;;;;;;74.97;30.20;;;;;;;7.89;97.22;93409.38;5100761;28;20043;-77
2022/03/31 08:29:19;;;;;;;80.13;29.73;;;;;;;7.77;96.68;93410.72;5107307;28;20527;-78
2022/03/31 08:31:45;;;;;;;73.85;30.77;;;;;;;7.72;97.49;93416.09;5078627;28;20513;-76
2022/03/31 08:34:11;;;;;;;74.40;29.98;;;;;;;7.83;97.74;93407.97;5080376;28;20036;-76
2022/03/31 08:36:37;;;;;;;75.50;30.05;;;;;;;7.72;97.48;93412.72;5094637;28;20043;-78
2022/03/31 08:39:06;;;;;;;76.80;31.38;;;;;;;7.72;97.78;93412.72;5093298;28;20040;-75
2022/03/31 08:41:32;;;;;;;82.00;31.90;;;;;;;7.88;99.31;93407.84;5088881;28;20509;-76
2022/03/31 08:43:58;;;;;;;73.72;30.30;;;;;;;8.21;97.66;93412.69;5098641;28;20051;-78
2022/03/31 08:46:30;;;;;;;73.30;31.75;;;;;;;7.79;99.25;93408.56;5096470;28;20518;-78
2022/03/31 08:48:56;;;;;;;72.22;29.25;;;;;;;7.97;97.78;93408.63;5083333;28;20394;-77
2022/03/31 08:51:22;;;;;;;82.03;30.40;;;;;;;8.14;99.93;93413.91;5088421;28;20048;-77
2022/03/31 08:53:48;;;;;;;77.45;30.23;;;;;;;8.03;99.24;93407.44;5095533;28;20047;-77
2022/03/31 08:56:14;;;;;;;80.90;29.75;;;;;;;8.21;99.29;93408.22;5077813;28;20035;-77
2022/03/31 08:58:42;;;;;;;73.07;29.73;;;;;;;8.19;99.37;93410.38;5095534;28;20051;-77
2022/03/31 09:01:10;;;;;;;78.43;32.25;;;;;;;8.13;99.69;93409.75;5084898;28;20114;-77
2022/03/31 09:03:38;;;;;;;79.20;29.42;;;;;;;8.20;97.50;93411.16;5081074;28;20040;-77
2022/03/31 09:06:04;;;;;;;82.90;29.08;;;;;;;8.24;96.46;93412.09;5093047;28;20092;-77
2022/03/31 09:08:30;;;;;;;68.88;27.48;;;;;;;8.29;96.16;93409.34;5094320;28;20122;-77
2022/03/31 09:11:00;;;;;;;74.90;27.75;;;;;;;8.56;96.89;93407.53;5104329;28;20420;-78
2022/03/31 09:13:44;;;;;;;66.97;26.02;;;;;;;8.34;96.20;93401.31;5083978;28;20114;-77
2022/03/31 09:16:11;;;;;;;74.13;27.08;;;;;;;8.36;94.34;93403.63;5102239;28;20051;-77
2022/03/31 09:18:39;;;;;;;71.38;28.17;;;;;;;8.52;94.64;93401.34;5101428;28;20261;-77
2022/03/31 09:21:10;;;;;;;67.13;26.25;;;;;;;8.31;94.15;93407.16;5085219;28;20048;-77
2022/03/31 09:23:44;;;;;;;76.65;27.70;;;;;;;8.52;93.11;93401.34;5098423;28;20050;-76
2022/03/31 09:26:15;;;;;;;70.32;27.80;;;;;;;8.49;93.80;93398.28;5106316;28;20040;-77
2022/03/31 09:28:45;;;;;;;70.68;27.38;;;;;;;8.91;91.36;93397.06;5088342;28;20093;-76
2022/03/31 09:31:13;;;;;;;71.70;27.38;;;;;;;8.70;92.63;93402.91;5086839;28;20516;-77
2022/03/31 09:33:48;;;;;;;68.72;27.02;;;;;;;8.55;91.58;93400.72;5081937;28;20128;-77
2022/03/31 09:36:19;;;;;;;66.88;26.08;;;;;;;9.07;87.76;93400.72;5092686;28;20076;-77
2022/03/31 09:38:53;;;;;;;62.58;24.98;;;;;;;9.21;89.79;93399.78;5081311;28;20048;-77
2022/03/31 09:41:22;;;;;;;65.72;26.20;;;;;;;9.03;87.67;93402.44;5109852;28;20425;-77
2022/03/31 09:43:49;;;;;;;67.45;25.65;;;;;;;8.76;89.43;93406.91;5102664;28;20054;-77
2022/03/31 09:46:28;;;;;;;59.58;24.17;;;;;;;8.71;91.10;93404.47;5082478;28;20094;-78
2022/03/31 09:48:55;;;;;;;60.65;24.50;;;;;;;8.71;88.41;93401.84;5098541;28;20532;-75
2022/03/31 09:51:23;;;;;;;63.03;23.50;;;;;;;8.84;87.94;93402.75;5099355;28;20496;-74
2022/03/31 09:53:50;;;;;;;60.78;24.45;;;;;;;8.78;89.01;93409.25;5104289;28;20040;-74
2022/03/31 09:56:18;;;;;;;62.38;24.17;;;;;;;8.87;90.38;93407.38;5091678;28;20084;-74
2022/03/31 09:58:46;;;;;;;72.97;28.30;;;;;;;8.54;90.62;93409.69;5104790;27;20036;-74
2022/03/31 10:01:14;;;;;;;70.07;26.58;;;;;;;8.76;91.40;93406.91;5097148;27;20043;-75
2022/03/31 10:03:39;;;;;;;110.15;28.83;;;;;;;8.64;90.24;93406.78;5097413;28;20051;-77
2022/03/31 10:06:07;;;;;;;74.03;26.95;;;;;;;8.27;92.04;93411.47;5091928;28;20036;-77
2022/03/31 10:08:42;;;;;;;73.82;28.58;;;;;;;8.23;91.63;93400.06;5096264;28;20523;-79
2022/03/31 10:11:10;;;;;;;72.93;26.13;;;;;;;8.51;91.56;93400.59;5098116;28;20113;-79
2022/03/31 10:13:54;;;;;;;67.50;26.17;;;;;;;8.48;91.75;93407.22;5074267;28;20039;-79
2022/03/31 10:16:31;;;;;;;64.65;25.60;;;;;;;8.61;88.89;93399.53;5093892;28;20040;-77
2022/03/31 10:18:56;;;;;;;67.25;25.60;;;;;;;8.91;89.70;93402.31;5093289;28;20046;-76
2022/03/31 10:21:29;;;;;;;63.33;25.45;;;;;;;8.75;89.18;93405.38;5093786;28;20044;-77
2022/03/31 10:26:40;;;;;;;56.72;23.88;;;;;;;8.93;88.43;93395.66;5092063;28;20043;-78
2022/03/31 10:29:14;;;;;;;63.47;23.67;;;;;;;8.72;89.17;93400.75;5102473;28;20065;-78
2022/03/31 10:31:45;;;;;;;69.18;25.52;;;;;;;8.35;91.29;93395.00;5095818;28;20048;-78
2022/03/31 10:34:12;;;;;;;56.35;24.05;;;;;;;8.53;90.40;93392.41;5102055;28;20040;-78
2022/03/31 10:36:45;;;;;;;58.33;23.42;;;;;;;8.72;89.19;93395.53;5103216;28;20066;-77
2022/03/31 10:39:18;;;;;;;62.35;24.02;;;;;;;8.80;88.77;93388.72;5091832;28;20078;-78
2022/03/31 10:41:44;;;;;;;59.13;24.08;;;;;;;8.74;90.04;93388.09;5103434;28;20039;-80
2022/03/31 10:44:12;;;;;;;96.25;26.23;;;;;;;8.56;90.49;93376.06;5099082;28;20095;-78
2022/03/31 10:46:45;;;;;;;68.15;26.05;;;;;;;9.01;86.85;93370.50;5101059;28;20040;-77
2022/03/31 10:49:17;;;;;;;54.03;22.63;;;;;;;8.99;87.62;93372.66;5095281;28;20036;-77
2022/03/31 10:51:45;;;;;;;59.95;22.40;;;;;;;8.95;88.20;93374.34;5085117;28;20062;-80
2022/03/31 10:54:24;;;;;;;62.40;24.88;;;;;;;8.47;88.98;93370.81;5102316;28;20027;-76
2022/03/31 10:57:01;;;;;;;56.17;23.98;;;;;;;8.81;88.54;93367.44;5083589;28;20070;-77
2022/03/31 10:59:27;;;;;;;63.40;24.00;;;;;;;8.76;89.62;93364.94;5096378;28;20086;-77
2022/03/31 11:01:53;;;;;;;65.43;25.33;;;;;;;8.65;87.57;93358.50;5092931;28;20036;-77
2022/03/31 11:04:19;;;;;;;55.05;23.15;;;;;;;8.83;88.32;93365.28;5091846;28;20631;-76
2022/03/31 11:06:49;;;;;;;55.42;23.48;;;;;;;8.94;88.44;93354.47;5096399;28;20504;-76
2022/03/31 11:09:22;;;;;;;66.43;24.98;;;;;;;8.76;89.86;93356.31;5074198;28;20044;-76
2022/03/31 11:11:51;;;;;;;66.50;25.58;;;;;;;8.57;90.15;93357.41;5100690;28;20057;-76
2022/03/31 11:14:17;;;;;;;63.00;25.08;;;;;;;8.42;90.23;93345.50;5103154;28;20093;-76
2022/03/31 11:16:44;;;;;;;54.88;23.13;;;;;;;8.76;90.08;93349.22;5112384;27;20040;-77
2022/03/31 11:19:10;;;;;;;58.45;23.83;;;;;;;9.13;87.15;93347.00;5090376;28;20046;-75
2022/03/31 11:21:42;;;;;;;62.28;23.92;;;;;;;9.17;85.91;93347.91;5102805;28;20036;-75
2022/03/31 11:24:09;;;;;;;58.22;23.50;;;;;;;8.73;87.87;93349.06;5103936;28;20405;-74
2022/03/31 11:26:44;;;;;;;56.65;23.75;;;;;;;8.50;88.99;93349.22;5091865;28;20036;-74
2022/03/31 11:29:15;;;;;;;59.30;24.00;;;;;;;9.07;86.12;93347.50;5099001;28;20043;-77
2022/03/31 11:31:52;;;;;;;58.65;22.52;;;;;;;8.87;87.69;93354.16;5096525;27;20040;-74
2022/03/31 11:34:24;;;;;;;62.55;24.25;;;;;;;8.82;89.72;93342.75;5080376;28;20405;-73
2022/03/31 11:36:51;;;;;;;61.13;23.83;;;;;;;8.91;88.59;93344.59;5096269;28;20655;-73